Time;durP1;ratioP1;P1;durP2;ratioP2;P2;SDS_P1;SDS_P2;PMS_P1;PMS_P2;Temp;Humidity;BMP_temperature;BMP_pressure;BME280_temperature;BME280_humidity;BME280_pressure;Samples;Min_cycle;Max_cycle;Signal;HPM_P1;HPM_P2
2023/04/25 00:01:59;;;;;;;;;;;;;;;11.78;88.53;100343.41;4984025;28;19918;-95
2023/04/25 00:04:26;;;;;;;;;;;;;;;11.77;88.47;100336.31;4992622;28;19933;-93
2023/04/25 00:06:53;;;;;;;;;;;;;;;11.80;88.23;100331.44;5006580;28;19929;-94
2023/04/25 00:09:28;;;;;;;;;;;;;;;11.82;88.06;100320.47;4983497;28;19922;-96
2023/04/25 00:11:55;;;;;;;;;;;;;;;11.55;89.34;100325.31;4981920;28;20373;-96
2023/04/25 00:14:25;;;;;;;;;;;;;;;11.56;89.26;100324.31;4988683;28;20072;-95
2023/04/25 00:16:53;;;;;;;;;;;;;;;11.53;89.54;100324.66;4992066;28;19918;-95
2023/04/25 00:19:22;;;;;;;;;;;;;;;11.46;89.90;100321.00;4995903;28;19917;-94
2023/04/25 00:21:49;;;;;;;;;;;;;;;11.41;90.11;100315.31;4977316;28;19933;-93
2023/04/25 00:24:18;;;;;;;;;;;;;;;11.43;90.02;100313.28;4991033;28;19964;-93
2023/04/25 00:26:46;;;;;;;;;;;;;;;11.35;90.44;100313.31;4987906;28;19972;-95
2023/04/25 00:29:25;;;;;;;;;;;;;;;11.44;90.23;100304.19;4982681;28;20330;-96
2023/04/25 00:31:55;;;;;;;;;;;;;;;11.40;90.33;100308.22;4979337;28;20395;-95
2023/04/25 00:34:26;;;;;;;;;;;;;;;11.48;89.86;100302.81;4981908;28;20044;-96
2023/04/25 00:37:19;;;;;;;;;;;;;;;11.41;89.84;100299.16;4990151;28;19964;-95
2023/04/25 00:39:56;;;;;;;;;;;;;;;11.28;90.93;100293.47;4991316;28;19929;-95
2023/04/25 00:42:29;;;;;;;;;;;;;;;11.29;90.78;100290.63;4994528;28;19996;-94
2023/04/25 00:45:19;;;;;;;;;;;;;;;11.29;91.04;100295.19;4980993;28;19934;-95
2023/04/25 00:48:07;;;;;;;;;;;;;;;11.34;90.74;100288.25;5005643;28;19913;-95
2023/04/25 00:50:52;;;;;;;;;;;;;;;11.37;90.77;100289.75;4988477;28;19968;-95
2023/04/25 00:53:20;;;;;;;;;;;;;;;11.25;91.01;100286.59;4982374;28;19926;-92
2023/04/25 00:55:54;;;;;;;;;;;;;;;11.25;91.44;100283.06;4973459;28;19946;-94
2023/04/25 00:58:31;;;;;;;;;;;;;;;11.33;91.21;100285.72;5001407;28;19964;-96
2023/04/25 01:01:06;;;;;;;;;;;;;;;11.37;90.82;100276.28;4990030;28;19936;-94
2023/04/25 01:03:35;;;;;;;;;;;;;;;11.38;91.07;100278.81;4982270;28;19996;-94
2023/04/25 01:06:03;;;;;;;;;;;;;;;11.36;91.02;100277.31;4997305;28;19929;-94
2023/04/25 01:08:35;;;;;;;;;;;;;;;11.45;90.50;100273.56;4982800;28;19933;-93
2023/04/25 01:11:04;;;;;;;;;;;;;;;11.44;90.06;100271.88;4982395;28;20362;-92
2023/04/25 01:13:31;;;;;;;;;;;;;;;11.59;89.33;100270.13;4985197;28;19922;-93
2023/04/25 01:16:09;;;;;;;;;;;;;;;11.58;89.26;100263.03;4997037;28;19946;-93
2023/04/25 01:18:51;;;;;;;;;;;;;;;11.53;89.41;100260.06;4976941;28;20446;-94
2023/04/25 01:21:43;;;;;;;;;;;;;;;11.52;89.27;100258.38;4977524;28;19929;-94
2023/04/25 01:24:10;;;;;;;;;;;;;;;11.57;89.22;100256.00;4979479;28;19997;-94
2023/04/25 01:26:49;;;;;;;;;;;;;;;11.54;89.51;100250.97;4960675;28;20058;-94
2023/04/25 01:32:23;;;;;;;;;;;;;;;11.58;89.23;100241.50;4996957;28;19977;-93
2023/04/25 01:34:51;;;;;;;;;;;;;;;11.58;89.02;100240.69;4996487;28;19941;-93
2023/04/25 01:37:18;;;;;;;;;;;;;;;11.66;88.48;100243.34;4984687;28;19910;-94
2023/04/25 01:40:01;;;;;;;;;;;;;;;11.62;88.54;100248.22;4997780;28;19910;-94
2023/04/25 01:42:30;;;;;;;;;;;;;;;11.52;89.28;100244.94;4980458;28;19917;-95
2023/04/25 01:44:56;;;;;;;;;;;;;;;11.53;89.38;100243.06;4980930;28;19910;-96
2023/04/25 01:47:59;;;;;;;;;;;;;;;11.54;89.10;100240.22;5009119;28;20008;-95
2023/04/25 01:50:46;;;;;;;;;;;;;;;11.51;89.28;100224.38;5004185;28;19910;-93
2023/04/25 01:53:12;;;;;;;;;;;;;;;11.50;89.63;100224.59;4979822;28;19910;-95
2023/04/25 01:55:38;;;;;;;;;;;;;;;11.51;89.67;100224.38;5003259;28;19977;-94
2023/04/25 01:58:09;;;;;;;;;;;;;;;11.52;89.63;100220.69;4984348;28;19914;-93
2023/04/25 02:00:39;;;;;;;;;;;;;;;11.51;90.02;100218.16;5071601;23;19925;-94
2023/04/25 02:03:29;;;;;;;;;;;;;;;11.50;89.99;100211.97;5002272;28;19981;-95
2023/04/25 02:06:18;;;;;;;;;;;;;;;11.54;89.94;100215.97;5022028;28;19924;-95
2023/04/25 02:08:45;;;;;;;;;;;;;;;11.54;89.75;100201.66;4989294;28;19929;-95
2023/04/25 02:11:13;;;;;;;;;;;;;;;11.54;89.86;100197.13;5006304;28;19983;-95
2023/04/25 02:13:54;;;;;;;;;;;;;;;11.57;89.94;100202.16;5014281;28;19909;-96
2023/04/25 02:16:31;;;;;;;;;;;;;;;11.55;90.32;100200.66;5021810;28;19913;-95
2023/04/25 02:19:00;;;;;;;;;;;;;;;11.60;89.81;100190.19;5014023;28;19997;-95
2023/04/25 02:21:26;;;;;;;;;;;;;;;11.48;90.52;100205.91;4987448;28;19926;-96
2023/04/25 02:23:51;;;;;;;;;;;;;;;11.58;89.98;100198.44;4987951;28;19948;-94
2023/04/25 02:26:25;;;;;;;;;;;;;;;11.64;89.55;100198.75;4994523;28;20021;-95
2023/04/25 02:28:53;;;;;;;;;;;;;;;11.71;89.39;100186.25;4980633;28;19925;-93
2023/04/25 02:31:47;;;;;;;;;;;;;;;11.75;89.29;100187.53;4989160;28;19922;-92
2023/04/25 02:34:14;;;;;;;;;;;;;;;11.71;89.22;100175.47;5001382;28;20004;-94
2023/04/25 02:36:48;;;;;;;;;;;;;;;11.76;89.19;100173.06;4998233;28;19926;-94
2023/04/25 02:39:14;;;;;;;;;;;;;;;11.75;89.04;100166.84;4999732;28;19990;-95
2023/04/25 02:41:44;;;;;;;;;;;;;;;11.67;89.32;100174.16;5001371;28;20012;-94
2023/04/25 02:44:22;;;;;;;;;;;;;;;11.76;89.17;100162.31;5007340;28;19969;-93
2023/04/25 02:46:49;;;;;;;;;;;;;;;11.79;88.83;100168.16;4995857;28;19925;-94
2023/04/25 02:49:25;;;;;;;;;;;;;;;11.82;88.71;100166.94;4983641;28;19987;-94
2023/04/25 02:51:56;;;;;;;;;;;;;;;11.84;88.72;100165.75;4983555;28;20352;-94
2023/04/25 02:54:22;;;;;;;;;;;;;;;11.81;88.92;100162.59;4992431;28;19966;-93
2023/04/25 02:56:49;;;;;;;;;;;;;;;11.63;90.02;100162.88;4983477;28;19941;-93
2023/04/25 03:00:05;;;;;;;;;;;;;;;;;;;;;
2023/04/25 03:02:27;;;;;;;;;;;;;;;11.47;91.11;100157.63;4993427;28;19930;-94
2023/04/25 03:04:53;;;;;;;;;;;;;;;11.50;91.13;100163.50;4979484;28;19937;-94
2023/04/25 03:07:39;;;;;;;;;;;;;;;11.38;92.05;100154.16;4989823;28;20317;-93
2023/04/25 03:10:10;;;;;;;;;;;;;;;11.45;91.79;100157.81;4993829;28;19921;-94
2023/04/25 03:12:42;;;;;;;;;;;;;;;11.44;91.66;100156.13;5005353;28;19945;-91
2023/04/25 03:15:09;;;;;;;;;;;;;;;11.48;91.60;100148.53;4990478;28;20394;-93
2023/04/25 03:18:07;;;;;;;;;;;;;;;11.43;92.08;100146.41;4999519;28;20025;-93
2023/04/25 03:20:58;;;;;;;;;;;;;;;11.43;92.21;100149.09;4999293;28;19921;-92
2023/04/25 03:23:24;;;;;;;;;;;;;;;11.41;92.47;100148.41;4979050;28;20369;-94
2023/04/25 03:25:58;;;;;;;;;;;;;;;11.36;93.13;100145.44;5017181;28;20024;-94
2023/04/25 03:28:23;;;;;;;;;;;;;;;11.26;93.07;100134.91;5000448;28;19922;-94
2023/04/25 03:31:02;;;;;;;;;;;;;;;11.33;93.17;100135.00;4993305;28;20016;-92
2023/04/25 03:33:54;;;;;;;;;;;;;;;11.35;93.00;100144.56;5009165;28;19917;-93
2023/04/25 03:36:26;;;;;;;;;;;;;;;11.42;92.88;100147.38;5018332;28;19996;-93
2023/04/25 03:38:52;;;;;;;;;;;;;;;11.47;92.59;100141.47;4998334;28;20051;-94
2023/04/25 03:41:18;;;;;;;;;;;;;;;11.48;92.20;100141.31;5022025;28;19914;-94
2023/04/25 03:43:46;;;;;;;;;;;;;;;11.38;92.28;100146.09;5006106;28;19914;-95
2023/04/25 03:46:26;;;;;;;;;;;;;;;11.42;92.27;100139.31;5004744;28;20001;-92
2023/04/25 03:49:04;;;;;;;;;;;;;;;11.42;92.68;100136.63;5001212;28;19961;-91
2023/04/25 03:51:36;;;;;;;;;;;;;;;11.43;92.31;100138.31;5005205;28;19945;-94
2023/04/25 03:54:09;;;;;;;;;;;;;;;11.43;92.70;100141.00;5001445;28;19925;-92
2023/04/25 03:56:35;;;;;;;;;;;;;;;11.43;92.58;100143.69;4990701;28;19922;-92
2023/04/25 03:59:01;;;;;;;;;;;;;;;11.45;92.70;100138.13;4985905;28;19924;-93
2023/04/25 04:01:52;;;;;;;;;;;;;;;11.42;92.45;100131.25;5000124;28;19921;-92
2023/04/25 04:04:29;;;;;;;;;;;;;;;11.41;92.29;100127.72;4988966;28;19964;-94
2023/04/25 04:06:55;;;;;;;;;;;;;;;11.41;92.92;100135.78;4973027;28;20314;-93
2023/04/25 04:09:23;;;;;;;;;;;;;;;11.48;92.29;100133.22;4995914;28;19922;-95
2023/04/25 04:11:51;;;;;;;;;;;;;;;11.40;92.72;100135.97;4991204;28;19926;-95
2023/04/25 04:14:19;;;;;;;;;;;;;;;11.43;92.72;100129.41;4966265;28;20000;-93
2023/04/25 04:16:44;;;;;;;;;;;;;;;11.47;92.42;100134.25;4984300;28;19963;-91
2023/04/25 04:19:10;;;;;;;;;;;;;;;11.51;92.20;100126.66;4960661;28;20032;-90
2023/04/25 04:21:36;;;;;;;;;;;;;;;11.64;91.89;100126.06;4967175;28;19979;-91
2023/04/25 04:24:03;;;;;;;;;;;;;;;11.72;91.98;100125.97;4976408;28;19926;-92
2023/04/25 04:26:29;;;;;;;;;;;;;;;11.83;91.63;100128.22;4984250;28;19918;-92
2023/04/25 04:28:54;;;;;;;;;;;;;;;11.91;90.53;100128.19;4970274;28;19928;-91
2023/04/25 04:31:30;;;;;;;;;;;;;;;11.98;90.14;100123.72;4981278;28;19922;-91
2023/04/25 04:33:55;;;;;;;;;;;;;;;12.04;88.90;100123.00;4993598;23;19933;-89
2023/04/25 04:36:21;;;;;;;;;;;;;;;12.17;88.79;100118.84;4965240;28;19934;-89
2023/04/25 04:38:49;;;;;;;;;;;;;;;12.18;87.55;100124.06;4983569;28;19997;-90
2023/04/25 04:41:20;;;;;;;;;;;;;;;12.43;86.48;100121.94;4987648;28;19926;-89
2023/04/25 04:43:46;;;;;;;;;;;;;;;12.57;86.19;100125.66;4985186;28;19953;-90
2023/04/25 04:46:12;;;;;;;;;;;;;;;12.83;84.96;100117.06;4990337;28;19960;-88
2023/04/25 04:48:39;;;;;;;;;;;;;;;12.98;83.92;100124.28;4988408;28;19961;-90
2023/04/25 04:51:10;;;;;;;;;;;;;;;13.12;83.79;100119.88;4988759;28;20437;-90
2023/04/25 04:53:35;;;;;;;;;;;;;;;13.53;81.54;100114.69;4988515;28;20021;-90
2023/04/25 04:56:04;;;;;;;;;;;;;;;13.72;79.54;100116.75;4988306;28;20088;-90
2023/04/25 04:58:33;;;;;;;;;;;;;;;13.76;79.41;100116.38;4985877;28;19929;-89
2023/04/25 05:00:59;;;;;;;;;;;;;;;13.89;78.37;100113.78;4972127;28;20343;-90
2023/04/25 05:03:28;;;;;;;;;;;;;;;13.77;78.54;100113.47;4985482;28;19933;-90
2023/04/25 05:05:55;;;;;;;;;;;;;;;13.78;78.03;100114.31;4986096;28;19921;-89
2023/04/25 05:08:21;;;;;;;;;;;;;;;13.94;77.57;100109.44;4967249;28;19922;-90
2023/04/25 05:10:47;;;;;;;;;;;;;;;14.08;76.30;100110.38;4990582;28;20386;-89
2023/04/25 05:13:12;;;;;;;;;;;;;;;14.65;75.36;100102.22;4993971;28;19930;-90
2023/04/25 05:15:38;;;;;;;;;;;;;;;15.01;72.38;100104.66;5010781;28;19938;-89
2023/04/25 05:18:04;;;;;;;;;;;;;;;14.67;72.64;100108.25;4983504;28;19962;-92
2023/04/25 05:20:30;;;;;;;;;;;;;;;15.03;71.51;100109.84;5008561;28;19937;-92
2023/04/25 05:22:55;;;;;;;;;;;;;;;15.24;70.61;100115.13;4989321;28;19920;-90
2023/04/25 05:25:21;;;;;;;;;;;;;;;15.58;69.69;100108.72;4963936;28;19921;-88
2023/04/25 05:27:48;;;;;;;;;;;;;;;15.48;68.34;100104.75;4994386;28;19934;-88
2023/04/25 05:30:13;;;;;;;;;;;;;;;15.71;67.81;100113.34;4966915;28;20382;-90
2023/04/25 05:32:41;;;;;;;;;;;;;;;16.22;67.41;100110.00;4982718;28;19930;-87
2023/04/25 05:35:07;;;;;;;;;;;;;;;16.59;64.81;100096.72;4949285;28;19929;-89
2023/04/25 05:37:33;;;;;;;;;;;;;;;17.07;63.17;100098.22;4965537;28;20287;-89
2023/04/25 05:39:59;;;;;;;;;;;;;;;17.52;62.15;100090.81;4961409;28;19937;-91
2023/04/25 05:42:27;;;;;;;;;;;;;;;17.77;59.92;100098.19;4968200;28;19922;-90
2023/04/25 05:44:52;;;;;;;;;;;;;;;18.21;59.63;100087.31;4983222;28;20176;-90
2023/04/25 05:47:18;;;;;;;;;;;;;;;18.12;58.66;100090.34;4965831;28;20046;-88
2023/04/25 05:49:43;;;;;;;;;;;;;;;17.94;58.43;100079.44;4983998;28;19988;-89
2023/04/25 05:52:09;;;;;;;;;;;;;;;18.23;57.80;100080.59;4972215;28;19996;-91
2023/04/25 05:54:34;;;;;;;;;;;;;;;18.63;57.20;100073.88;4950976;28;19996;-90
2023/04/25 05:56:59;;;;;;;;;;;;;;;18.80;55.69;100068.66;4987435;28;19930;-90
2023/04/25 05:59:25;;;;;;;;;;;;;;;18.38;54.62;100074.81;4982428;28;19930;-90
2023/04/25 06:01:52;;;;;;;;;;;;;;;18.12;55.47;100075.91;4961858;28;20422;-90
2023/04/25 06:04:19;;;;;;;;;;;;;;;18.28;55.75;100077.19;4982224;28;19988;-90
2023/04/25 06:06:45;;;;;;;;;;;;;;;18.16;56.31;100077.13;4970612;28;20364;-89
2023/04/25 06:09:17;;;;;;;;;;;;;;;18.28;55.83;100069.88;4994086;28;19913;-90
2023/04/25 06:11:43;;;;;;;;;;;;;;;18.37;55.96;100078.56;5005894;28;19926;-92
2023/04/25 06:14:10;;;;;;;;;;;;;;;18.45;55.37;100069.25;4997455;28;20006;-91
2023/04/25 06:16:36;;;;;;;;;;;;;;;18.49;55.06;100062.31;4965713;28;20369;-90
2023/04/25 06:19:01;;;;;;;;;;;;;;;18.30;55.25;100067.75;4992271;28;19953;-89
2023/04/25 06:21:27;;;;;;;;;;;;;;;18.45;55.50;100069.25;4973927;28;19945;-89
2023/04/25 06:23:54;;;;;;;;;;;;;;;18.22;55.06;100067.25;4975458;28;20410;-89
2023/04/25 06:26:19;;;;;;;;;;;;;;;18.38;55.51;100063.06;4984975;28;19926;-90
2023/04/25 06:28:47;;;;;;;;;;;;;;;18.41;55.38;100062.63;4963748;28;20383;-88
2023/04/25 06:31:13;;;;;;;;;;;;;;;17.93;55.89;100059.56;4980081;28;19988;-91
2023/04/25 06:33:38;;;;;;;;;;;;;;;17.67;56.28;100059.75;4988193;28;20388;-88
2023/04/25 06:36:03;;;;;;;;;;;;;;;17.78;55.95;100056.31;4989066;28;20005;-88
2023/04/25 06:38:31;;;;;;;;;;;;;;;17.99;56.09;100057.00;4995209;28;20401;-88
2023/04/25 06:40:56;;;;;;;;;;;;;;;18.26;55.61;100052.97;5002343;28;19929;-86
2023/04/25 06:43:21;;;;;;;;;;;;;;;18.21;54.50;100046.53;4992039;28;20048;-87
2023/04/25 06:45:48;;;;;;;;;;;;;;;18.43;54.54;100052.34;4990161;28;20429;-86
2023/04/25 06:48:13;;;;;;;;;;;;;;;18.46;54.59;100047.28;4982934;28;20434;-87
2023/04/25 06:50:40;;;;;;;;;;;;;;;18.77;53.95;100038.09;4984789;28;20074;-87
2023/04/25 06:53:05;;;;;;;;;;;;;;;18.83;53.19;100035.56;4971617;28;19944;-89
2023/04/25 06:55:31;;;;;;;;;;;;;;;18.42;54.15;100050.69;4966413;28;19917;-87
2023/04/25 06:57:57;;;;;;;;;;;;;;;18.70;54.35;100047.41;4969895;28;19929;-87
2023/04/25 07:00:26;;;;;;;;;;;;;;;18.84;53.24;100054.34;4967384;28;19948;-87
2023/04/25 07:02:51;;;;;;;;;;;;;;;18.92;52.84;100061.41;4983555;28;19984;-89
2023/04/25 07:05:21;;;;;;;;;;;;;;;18.78;52.52;100055.31;4966321;28;19925;-89
2023/04/25 07:07:47;;;;;;;;;;;;;;;18.75;52.66;100051.13;4972448;28;20035;-88
2023/04/25 07:10:12;;;;;;;;;;;;;;;19.08;52.73;100044.41;4954155;28;19918;-90
2023/04/25 07:12:37;;;;;;;;;;;;;;;18.82;52.02;100042.03;4987960;28;19960;-88
2023/04/25 07:15:05;;;;;;;;;;;;;;;18.73;51.82;100044.22;4982747;28;19961;-89
2023/04/25 07:17:33;;;;;;;;;;;;;;;19.16;52.04;100045.97;4977322;28;19922;-90
2023/04/25 07:19:59;;;;;;;;;;;;;;;19.61;50.61;100043.56;4956368;28;19980;-90
2023/04/25 07:22:26;;;;;;;;;;;;;;;20.00;50.00;100034.97;4965845;28;20444;-85
2023/04/25 07:24:53;;;;;;;;;;;;;;;20.31;48.36;100047.38;4973398;28;20004;-88
2023/04/25 07:27:18;;;;;;;;;;;;;;;20.74;45.98;100028.88;4976037;28;19929;-90
2023/04/25 07:29:44;;;;;;;;;;;;;;;21.17;45.67;100033.81;4975138;28;19926;-89
2023/04/25 07:32:17;;;;;;;;;;;;;;;21.79;44.43;100029.38;4959760;28;19992;-90
2023/04/25 07:34:43;;;;;;;;;;;;;;;22.36;42.65;100012.69;4979896;28;20007;-90
2023/04/25 07:37:10;;;;;;;;;;;;;;;22.47;40.53;100013.63;4990979;28;19933;-89
2023/04/25 07:39:36;;;;;;;;;;;;;;;23.00;40.05;100008.50;4987237;28;19990;-91
2023/04/25 07:42:03;;;;;;;;;;;;;;;23.30;39.83;100006.03;4976872;28;20283;-90
2023/04/25 07:44:30;;;;;;;;;;;;;;;24.03;38.64;100008.25;4988056;28;19930;-91
2023/04/25 07:46:56;;;;;;;;;;;;;;;23.76;37.73;100008.34;4991653;28;19961;-93
2023/04/25 07:49:22;;;;;;;;;;;;;;;24.31;37.70;100004.25;4963431;28;19930;-92
2023/04/25 07:51:48;;;;;;;;;;;;;;;24.68;37.25;100000.59;4970589;28;19941;-89
2023/04/25 07:54:15;;;;;;;;;;;;;;;25.27;35.80;99993.84;4980160;28;19921;-87
2023/04/25 07:56:41;;;;;;;;;;;;;;;25.17;36.24;99988.28;4982248;28;19929;-88
2023/04/25 07:59:13;;;;;;;;;;;;;;;25.04;36.11;99993.22;4986019;28;20296;-89
2023/04/25 08:02:00;;;;;;;;;;;;;;;24.18;37.53;100000.06;4976509;28;20016;-91
2023/04/25 08:04:27;;;;;;;;;;;;;;;22.50;40.29;100003.00;4957736;28;19926;-88
2023/04/25 08:06:53;;;;;;;;;;;;;;;22.46;40.91;100006.50;4973554;28;19922;-89
2023/04/25 08:09:19;;;;;;;;;;;;;;;21.88;42.19;100005.97;4977718;28;19926;-89
2023/04/25 08:11:45;;;;;;;;;;;;;;;20.65;45.26;100006.63;4966328;28;20415;-90
2023/04/25 08:14:15;;;;;;;;;;;;;;;20.83;45.01;100008.31;4972960;28;19937;-87
2023/04/25 08:16:42;;;;;;;;;;;;;;;19.84;47.29;100020.13;4998427;28;19918;-85
2023/04/25 08:19:10;;;;;;;;;;;;;;;19.03;49.69;100027.09;4979564;28;19993;-85
2023/04/25 08:21:39;;;;;;;;;;;;;;;19.15;49.73;100028.78;5001179;28;19930;-94
2023/04/25 08:24:07;;;;;;;;;;;;;;;18.13;52.09;100031.34;4990292;28;19922;-87
2023/04/25 08:26:34;;;;;;;;;;;;;;;18.01;53.78;100033.97;4981507;28;20361;-89
2023/04/25 08:29:02;;;;;;;;;;;;;;;18.22;53.76;100037.31;4978895;28;19933;-91
2023/04/25 08:31:32;;;;;;;;;;;;;;;18.51;53.48;100031.09;5003031;28;19924;-89
2023/04/25 08:33:59;;;;;;;;;;;;;;;18.65;52.86;100028.19;5003356;28;19993;-89
2023/04/25 08:36:29;;;;;;;;;;;;;;;18.84;52.51;100026.31;5001266;28;20053;-90
2023/04/25 08:38:56;;;;;;;;;;;;;;;18.90;51.59;100022.66;4966120;28;19926;-86
2023/04/25 08:41:22;;;;;;;;;;;;;;;18.84;51.71;100023.59;4982373;28;19926;-88
2023/04/25 08:43:49;;;;;;;;;;;;;;;18.87;51.69;100023.13;4987774;28;19933;-86
2023/04/25 08:46:17;;;;;;;;;;;;;;;18.66;52.26;100022.53;4999601;28;19925;-86
2023/04/25 08:48:45;;;;;;;;;;;;;;;18.22;52.86;100023.72;4999440;28;20155;-87
2023/04/25 08:51:10;;;;;;;;;;;;;;;18.14;53.11;100030.25;4985344;28;19918;-89
2023/04/25 08:53:36;;;;;;;;;;;;;;;18.00;53.00;100026.03;4995477;28;19965;-88
2023/04/25 08:56:02;;;;;;;;;;;;;;;17.99;52.93;100024.38;4993996;28;20130;-84
2023/04/25 08:58:28;;;;;;;;;;;;;;;17.84;53.63;100032.88;4995576;28;20362;-86
2023/04/25 09:00:53;;;;;;;;;;;;;;;17.75;52.55;100026.88;4995528;28;19922;-85
2023/04/25 09:03:19;;;;;;;;;;;;;;;17.63;53.25;100032.22;4986710;28;19945;-91
2023/04/25 09:05:45;;;;;;;;;;;;;;;17.35;53.82;100029.06;5003031;28;19993;-89
2023/04/25 09:08:10;;;;;;;;;;;;;;;17.21;54.13;100028.38;4984052;28;19922;-89
2023/04/25 09:10:35;;;;;;;;;;;;;;;17.19;54.72;100030.47;4981178;28;19955;-85
2023/04/25 09:13:11;;;;;;;;;;;;;;;17.37;54.38;100018.81;4989866;28;19937;-85
2023/04/25 09:15:51;;;;;;;;;;;;;;;17.22;54.00;100016.44;4993475;28;19922;-86
2023/04/25 09:18:29;;;;;;;;;;;;;;;16.84;54.97;100009.19;4975691;28;19925;-86
2023/04/25 09:20:55;;;;;;;;;;;;;;;17.12;54.60;100014.22;4975337;28;19926;-86
2023/04/25 09:23:23;;;;;;;;;;;;;;;17.40;53.94;100013.78;4971094;28;19954;-86
2023/04/25 09:25:53;;;;;;;;;;;;;;;17.41;53.83;100007.28;4994830;28;19921;-87
2023/04/25 09:28:34;;;;;;;;;;;;;;;17.66;53.03;100006.47;4978307;28;20037;-89
2023/04/25 09:31:03;;;;;;;;;;;;;;;18.06;52.67;100012.34;4964779;28;19925;-88
2023/04/25 09:33:30;;;;;;;;;;;;;;;18.40;51.38;100003.81;4975566;28;19929;-87
2023/04/25 09:35:58;;;;;;;;;;;;;;;18.55;50.96;99996.09;4972575;28;20347;-86
2023/04/25 09:38:43;;;;;;;;;;;;;;;18.60;50.45;100000.84;4993429;28;19961;-88
2023/04/25 09:41:09;;;;;;;;;;;;;;;18.74;50.33;100000.44;4992799;28;19921;-87
2023/04/25 09:43:35;;;;;;;;;;;;;;;18.76;49.98;99997.47;4959460;28;20327;-91
2023/04/25 09:46:08;;;;;;;;;;;;;;;18.88;50.10;99986.66;4977564;28;19933;-94
2023/04/25 09:48:36;;;;;;;;;;;;;;;19.10;49.57;99986.94;4997070;28;20771;-92
2023/04/25 09:57:33;;;;;;;;;;;;;;;19.95;47.68;99983.84;5000798;28;20024;-92
2023/04/25 10:00:12;;;;;;;;;;;;;;;20.07;46.88;99942.91;4978469;28;20006;-95
2023/04/25 10:02:44;;;;;;;;;;;;;;;20.35;47.14;99972.13;5001108;28;19921;-94
2023/04/25 10:05:36;;;;;;;;;;;;;;;20.72;45.62;99973.66;4986841;28;19985;-96
2023/04/25 10:08:03;;;;;;;;;;;;;;;20.85;45.56;99965.19;4976753;28;20070;-94
2023/04/25 10:10:32;;;;;;;;;;;;;;;21.58;43.99;99957.94;4978924;28;20405;-94
2023/04/25 10:13:04;;;;;;;;;;;;;;;22.32;42.48;99957.59;5000176;28;20437;-95
2023/04/25 10:15:32;;;;;;;;;;;;;;;22.75;41.31;99949.56;4986195;28;19942;-95
2023/04/25 10:18:01;;;;;;;;;;;;;;;23.52;40.27;99953.00;4987846;28;19917;-95
2023/04/25 10:20:30;;;;;;;;;;;;;;;24.48;37.80;99943.63;4981802;28;19922;-95
2023/04/25 10:23:01;;;;;;;;;;;;;;;27.20;34.17;99937.47;4981485;28;19938;-94
2023/04/25 10:25:30;;;;;;;;;;;;;;;28.86;30.82;99931.38;4983563;28;20023;-94
2023/04/25 10:28:06;;;;;;;;;;;;;;;29.13;29.83;99924.34;4978545;28;19934;-92
2023/04/25 10:30:32;;;;;;;;;;;;;;;30.12;28.38;99925.00;5004693;28;20339;-95
2023/04/25 10:33:03;;;;;;;;;;;;;;;30.80;27.49;99912.94;4990187;28;19952;-94
2023/04/25 10:35:35;;;;;;;;;;;;;;;32.01;25.87;99920.41;5000595;28;19905;-95
2023/04/25 10:38:19;;;;;;;;;;;;;;;33.18;24.26;99923.47;4950859;28;19926;-88
2023/04/25 10:41:08;;;;;;;;;;;;;;;33.39;24.12;99913.25;4980341;28;19921;-89
2023/04/25 10:43:34;;;;;;;;;;;;;;;32.86;23.79;99917.25;4983143;28;19961;-90
2023/04/25 10:46:02;;;;;;;;;;;;;;;33.14;23.75;99901.03;4991654;28;19976;-91
2023/04/25 10:48:29;;;;;;;;;;;;;;;33.45;23.42;99910.28;4961125;28;19918;-90
2023/04/25 10:51:13;;;;;;;;;;;;;;;33.47;23.03;99910.78;5011959;28;19929;-86
2023/04/25 10:53:38;;;;;;;;;;;;;;;32.35;24.51;99916.84;5012251;28;20021;-87
2023/04/25 10:56:10;;;;;;;;;;;;;;;30.90;26.35;99915.50;5006964;28;20004;-88
2023/04/25 10:58:36;;;;;;;;;;;;;;;29.76;27.42;99909.09;4994311;28;19997;-88
2023/04/25 11:01:06;;;;;;;;;;;;;;;28.69;29.59;99915.31;4964299;28;19986;-88
2023/04/25 11:03:32;;;;;;;;;;;;;;;29.31;28.92;99904.09;4990906;28;19940;-90
2023/04/25 11:06:00;;;;;;;;;;;;;;;27.77;30.65;99917.31;4978058;28;19961;-86
2023/04/25 11:08:33;;;;;;;;;;;;;;;25.94;34.09;99916.69;4973229;28;20017;-87
2023/04/25 11:10:58;;;;;;;;;;;;;;;25.16;35.37;99904.13;4979245;28;19996;-88
2023/04/25 11:13:30;;;;;;;;;;;;;;;23.88;38.33;99912.91;4973244;28;19933;-87
2023/04/25 11:15:55;;;;;;;;;;;;;;;22.84;40.65;99917.88;4990031;28;20333;-87
2023/04/25 11:18:20;;;;;;;;;;;;;;;22.38;41.75;99911.09;4968931;28;19964;-87
2023/04/25 11:20:48;;;;;;;;;;;;;;;22.26;42.33;99914.81;4987539;28;19922;-86
2023/04/25 11:23:16;;;;;;;;;;;;;;;22.17;42.52;99912.75;4983962;28;19913;-86
2023/04/25 11:25:41;;;;;;;;;;;;;;;21.95;43.03;99924.53;4971902;28;19922;-87
2023/04/25 11:28:07;;;;;;;;;;;;;;;22.06;42.89;99909.06;4943973;28;19941;-85
2023/04/25 11:30:33;;;;;;;;;;;;;;;22.12;42.67;99917.09;4942799;28;20015;-87
2023/04/25 11:32:58;;;;;;;;;;;;;;;21.99;43.00;99903.78;4946196;28;19915;-88
2023/04/25 11:35:25;;;;;;;;;;;;;;;21.80;43.12;99906.00;4961843;28;20017;-86
2023/04/25 11:37:51;;;;;;;;;;;;;;;21.59;42.98;99904.91;4935506;28;19930;-85
2023/04/25 11:40:17;;;;;;;;;;;;;;;20.61;44.66;99896.19;4950796;28;19918;-87
2023/04/25 11:42:48;;;;;;;;;;;;;;;20.91;44.31;99892.31;4967461;28;20192;-88
2023/04/25 11:45:16;;;;;;;;;;;;;;;20.75;44.57;99894.00;4947613;28;20410;-88
2023/04/25 11:47:43;;;;;;;;;;;;;;;20.05;45.63;99898.66;4969333;28;19946;-87
2023/04/25 11:50:11;;;;;;;;;;;;;;;20.02;45.22;99891.78;4958004;28;20397;-87
2023/04/25 11:52:43;;;;;;;;;;;;;;;20.22;45.01;99895.97;4956631;28;20044;-86
2023/04/25 11:55:13;;;;;;;;;;;;;;;19.51;46.06;99893.38;4937845;28;19985;-86
2023/04/25 11:57:42;;;;;;;;;;;;;;;19.97;45.14;99893.56;4975889;28;20038;-87
2023/04/25 12:00:13;;;;;;;;;;;;;;;20.08;44.27;99894.59;4970249;28;19929;-88
2023/04/25 12:03:06;;;;;;;;;;;;;;;20.33;43.51;99895.09;4984970;28;19941;-88
2023/04/25 12:05:33;;;;;;;;;;;;;;;20.34;43.46;99893.19;4977440;28;19972;-88
2023/04/25 12:08:09;;;;;;;;;;;;;;;20.35;42.29;99878.50;4959932;28;20009;-87
2023/04/25 12:10:36;;;;;;;;;;;;;;;20.16;41.69;99881.41;4970714;28;19937;-89
2023/04/25 12:13:17;;;;;;;;;;;;;;;19.89;42.32;99897.50;4956983;28;20358;-86
2023/04/25 12:15:45;;;;;;;;;;;;;;;20.12;42.22;99873.97;4980897;28;19922;-87
2023/04/25 12:18:10;;;;;;;;;;;;;;;19.82;42.79;99874.97;4974966;28;19921;-87
2023/04/25 12:20:35;;;;;;;;;;;;;;;20.15;42.09;99879.75;4981509;28;19930;-86
2023/04/25 12:23:02;;;;;;;;;;;;;;;19.82;42.93;99869.53;4981488;28;20055;-85
2023/04/25 12:25:38;;;;;;;;;;;;;;;19.75;43.20;99868.84;4943134;28;19922;-87
2023/04/25 12:28:27;;;;;;;;;;;;;;;19.81;43.45;99873.34;4983894;28;19922;-89
2023/04/25 12:30:56;;;;;;;;;;;;;;;19.78;43.54;99860.16;4992781;28;19930;-88
2023/04/25 12:33:24;;;;;;;;;;;;;;;19.49;44.58;99864.69;4982644;28;20027;-84
2023/04/25 12:35:49;;;;;;;;;;;;;;;19.37;45.20;99862.81;4993219;28;19949;-86
2023/04/25 12:38:29;;;;;;;;;;;;;;;19.25;45.81;99863.91;5000113;28;19918;-85
2023/04/25 12:40:55;;;;;;;;;;;;;;;18.91;47.09;99858.19;4994573;28;19968;-85
2023/04/25 12:43:21;;;;;;;;;;;;;;;18.53;48.58;99868.38;4984764;28;19929;-86
2023/04/25 12:45:50;;;;;;;;;;;;;;;18.44;48.80;99861.59;5005621;28;19922;-84
2023/04/25 12:48:15;;;;;;;;;;;;;;;18.21;49.55;99853.34;4992374;28;19918;-85
2023/04/25 12:50:41;;;;;;;;;;;;;;;18.37;49.53;99851.88;4991742;28;19917;-87
2023/04/25 12:53:06;;;;;;;;;;;;;;;17.84;51.52;99848.84;4963642;28;19918;-86
2023/04/25 12:55:38;;;;;;;;;;;;;;;18.00;51.29;99850.06;4993705;28;19952;-87
2023/04/25 12:58:05;;;;;;;;;;;;;;;18.17;51.58;99847.56;4993808;28;19929;-85
2023/04/25 13:00:31;;;;;;;;;;;;;;;18.33;51.48;99851.50;4974516;28;20422;-85
2023/04/25 13:02:57;;;;;;;;;;;;;;;18.54;51.35;99848.28;4995303;28;19953;-86
2023/04/25 13:05:23;;;;;;;;;;;;;;;18.65;51.28;99843.91;4993690;28;19918;-86